Anvik, AK

1:36 PM AKDT on October 24, 2014 (GMT -0800)
Anvik | Change Station
CLOSE
Current Station
Airport
Location: Anvik,
Elevation: 308 ft
Nearby Weather Stations
Active Advisory: Special Statement Active Notice: Record Report

Elev 308 ft 62.65 °N, 160.19 °W | Updated 20 minutes ago

Overcast
Overcast
27 °F
Feels Like 21 °F
N
5
Wind Variable Wind from SSE

Today
High -- | Low -- °F
--% Chance of Precip.
Yesterday
High -- | Low -- °F
Precip. -- in
9:55 AM 6:54 PM
New Moon, 1% visible
Pressure 29.91 in
Visibility 5.0 miles
Clouds Scattered Clouds 500 ft
Scattered Clouds 8000 ft
Overcast 9000 ft
Windchill 21 °F
Dew Point 25 °F
Humidity 93%
Rainfall 0.00 in
Snow Depth Not available.
UV 0 out of 12
Pollen Not available.
Air Quality Not available.
Flu Activity Sporadic
METAR PANV 242116Z AUTO 15004KT 5SM SCT005 SCT080 OVC090 M03/M04 A2991 RMK AO1

More Conditions Fewer Conditions

Pressure 29.91 in
Visibility 5.0 miles
Clouds Scattered Clouds 500 ft
Scattered Clouds 8000 ft
Overcast 9000 ft
Windchill 21 °F
Dew Point 25 °F
Humidity 93%
Rainfall 0.00 in
Snow Depth Not available.
UV 0 out of 12
Pollen Not available.
Air Quality Not available.
Flu Activity Sporadic
METAR PANV 242116Z AUTO 15004KT 5SM SCT005 SCT080 OVC090 M03/M04 A2991 RMK AO1

More Conditions Fewer Conditions

10-Day Weather Forecast

Almanac

Astronomy

Oct. 24, 2014 Rise Set
Actual Time 9:55 AM AKDT 6:54 PM AKDT
Civil Twilight 9:06 AM AKDT 7:43 PM AKDT
Nautical Twilight 8:13 AM AKDT 8:36 PM AKDT
Astronomical Twilight 7:19 AM AKDT 9:29 PM AKDT
Moon 11:01 AM AKDT 7:23 PM AKDT
Length of Visible Light 10h 36m
Length of Day
8h 59m
Tomorrow will be 6m 7s shorter.
New Moon, 1% of the Moon is Illuminated
Today
New Moon
Oct 30
First Quarter
Nov 6
Full
Nov 14
Last Quarter
Nov 22
New

Today's Extremes

State Highs State Lows

Community

WunderPhotos

Upload Photos

1,764,676 photos uploaded!

WunderBlogs® & News

By Dr. Jeff Masters
Director of Meteorology, Weather Underground
By Kari Strenfel
Meteorologist, Weather Underground
By Christopher C. Burt
Weather Historian, Weather Underground
October 24, 2014
October 24, 2014
October 24, 2014

Nearby

Snow Depth

Station Depth Elevation
Rocky Point 4 in 500 ft
Pargon Creek 0 in 300 ft
Susitna Valley High 0 in 375 ft
Point Mackenzie 1 in 200 ft
Mcneil Canyon 1 in 1320 ft

Earthquake Activity

City Distance Mag. Time & Date
No recent earthquake activity has been reported nearby.
Minimum magnitude displayed is 2.5.

Coastal Water Temperatures

Place Temperature
No Stations Reporting

Nearby Weather Stations